createdAt,value
2018-07-05T07:46:22.671Z,1.80
2018-07-05T07:47:22.542Z,2.90
2018-07-05T07:48:22.829Z,3.40
2018-07-05T07:49:22.505Z,2.80
2018-07-05T07:50:22.459Z,2.40
2018-07-05T07:51:22.527Z,3.50
2018-07-05T07:52:22.400Z,2.70
2018-07-05T07:53:22.575Z,4.30
2018-07-05T07:54:22.372Z,3.70
2018-07-05T07:55:22.351Z,2.70
2018-07-05T07:56:22.337Z,3.30
2018-07-05T07:57:22.316Z,3.20
2018-07-05T07:58:22.397Z,3.50
2018-07-05T07:59:22.334Z,3.30
2018-07-05T08:00:22.303Z,3.00
2018-07-05T08:01:22.273Z,3.00
2018-07-05T08:02:22.272Z,3.50
2018-07-05T08:03:22.346Z,3.30
2018-07-05T08:04:22.252Z,3.20
2018-07-05T08:05:22.307Z,3.10
2018-07-05T08:06:22.231Z,3.10
2018-07-05T08:07:22.236Z,3.50
2018-07-05T08:08:22.275Z,4.30
2018-07-05T08:09:22.369Z,3.00
2018-07-05T08:10:22.193Z,3.70
2018-07-05T08:11:22.189Z,4.50
2018-07-05T08:12:22.215Z,3.90
2018-07-05T08:13:22.236Z,3.90
2018-07-05T08:14:22.231Z,3.40
2018-07-05T08:15:22.178Z,3.50
2018-07-05T08:16:22.121Z,5.20
2018-07-05T08:17:22.119Z,3.60
2018-07-05T08:18:22.130Z,2.80
2018-07-05T08:19:22.581Z,3.90
2018-07-05T08:20:22.132Z,3.90
2018-07-05T08:21:22.249Z,2.60
2018-07-05T08:22:22.194Z,3.00
2018-07-05T08:23:22.035Z,3.00
2018-07-05T08:24:22.103Z,4.30
2018-07-05T08:25:22.021Z,3.20
2018-07-05T08:26:22.011Z,3.50
2018-07-05T08:27:22.582Z,3.40
2018-07-05T08:28:22.004Z,3.40
2018-07-05T08:29:22.073Z,4.00
2018-07-05T08:30:21.973Z,4.40
2018-07-05T08:31:21.965Z,4.00
2018-07-05T08:32:21.944Z,5.00
2018-07-05T08:33:21.970Z,3.60
2018-07-05T08:34:21.998Z,4.50
2018-07-05T08:35:21.912Z,4.60
2018-07-05T08:36:21.918Z,5.30
2018-07-05T08:37:21.883Z,4.10
2018-07-05T08:38:21.883Z,3.90
2018-07-05T08:39:21.932Z,2.90
2018-07-05T08:40:21.871Z,3.90
2018-07-05T08:41:21.893Z,4.00
2018-07-05T08:42:21.832Z,5.30
2018-07-05T08:43:21.815Z,5.20
2018-07-05T08:44:22.045Z,2.50
2018-07-05T08:45:21.809Z,6.10
2018-07-05T08:46:21.993Z,3.10
2018-07-05T08:47:21.848Z,4.20
2018-07-05T08:48:21.788Z,3.10
2018-07-05T08:49:21.828Z,3.80
2018-07-05T08:50:21.748Z,3.80
2018-07-05T08:51:21.739Z,3.80
2018-07-05T08:52:21.729Z,4.60
2018-07-05T08:53:21.716Z,5.50
2018-07-05T08:54:21.801Z,4.60
2018-07-05T08:55:21.695Z,3.20
2018-07-05T08:56:21.685Z,5.20
2018-07-05T08:57:21.709Z,4.70
2018-07-05T08:58:21.877Z,4.40
2018-07-05T08:59:21.718Z,5.30
2018-07-05T09:00:21.636Z,4.50
2018-07-05T09:01:21.622Z,4.80
2018-07-05T09:02:21.706Z,5.60
2018-07-05T09:03:21.611Z,4.80
2018-07-05T09:04:21.786Z,6.10
2018-07-05T09:05:21.680Z,4.10
2018-07-05T09:06:21.579Z,5.20
2018-07-05T09:07:21.568Z,5.40
2018-07-05T09:08:21.551Z,4.20
2018-07-05T09:09:21.605Z,4.20
2018-07-05T09:10:21.541Z,4.90
2018-07-05T09:11:21.506Z,5.70
2018-07-05T09:12:21.510Z,4.00
2018-07-05T09:13:21.486Z,4.10
2018-07-05T09:14:21.567Z,4.10
2018-07-05T09:15:21.491Z,3.60
2018-07-05T09:16:21.481Z,4.90
2018-07-05T09:17:21.527Z,5.30
2018-07-05T09:18:21.609Z,4.60
2018-07-05T09:19:21.515Z,4.20
2018-07-05T09:20:21.423Z,5.30
2018-07-05T09:21:21.423Z,6.20
2018-07-05T09:22:21.426Z,5.20
2018-07-05T09:23:21.442Z,5.70
2018-07-05T09:24:21.445Z,4.00
2018-07-05T09:25:21.366Z,4.70
2018-07-05T09:26:21.358Z,5.30
2018-07-05T09:27:21.358Z,4.70
2018-07-05T09:28:21.329Z,5.20
2018-07-05T09:29:21.375Z,4.00
2018-07-05T09:30:21.301Z,5.00
2018-07-05T09:31:21.313Z,5.30
2018-07-05T09:32:21.288Z,5.80
2018-07-05T09:33:21.272Z,4.50
2018-07-05T09:34:21.330Z,5.00
2018-07-05T09:35:21.257Z,5.30
2018-07-05T09:36:21.244Z,4.00
2018-07-05T09:37:21.282Z,5.10
2018-07-05T09:38:21.219Z,5.10
2018-07-05T09:39:21.260Z,5.00
2018-07-05T09:40:21.191Z,5.30
2018-07-05T09:41:21.181Z,5.30
2018-07-05T09:42:21.173Z,4.40
2018-07-05T09:43:21.160Z,6.00
2018-07-05T09:44:21.211Z,6.40
2018-07-05T09:45:21.140Z,5.30
2018-07-05T09:46:21.135Z,4.50
2018-07-05T09:47:21.119Z,15.20
2018-07-05T09:48:21.111Z,10.10
2018-07-05T09:49:21.154Z,8.50
2018-07-05T09:50:21.093Z,5.10
2018-07-05T09:51:21.074Z,5.20
2018-07-05T09:52:21.127Z,5.60
2018-07-05T09:53:21.052Z,5.10
2018-07-05T09:54:21.045Z,6.90
2018-07-05T09:55:21.089Z,4.70
2018-07-05T09:56:21.028Z,5.70
2018-07-05T09:57:21.009Z,5.10
2018-07-05T09:58:21.001Z,5.30
2018-07-05T09:59:20.990Z,3.80
2018-07-05T10:00:21.201Z,4.80
2018-07-05T10:01:20.967Z,5.00
2018-07-05T10:02:20.956Z,5.20
2018-07-05T10:03:20.952Z,4.40
2018-07-05T10:04:20.938Z,5.70
2018-07-05T10:05:20.981Z,4.90
2018-07-05T10:06:20.914Z,5.50
2018-07-05T10:07:20.911Z,5.60
2018-07-05T10:08:20.912Z,4.90
2018-07-05T10:09:21.177Z,5.40
2018-07-05T10:10:21.002Z,4.20
2018-07-05T10:11:20.953Z,4.40
2018-07-05T10:12:20.874Z,5.20
2018-07-05T10:13:20.907Z,5.50
2018-07-05T10:14:20.845Z,4.80
2018-07-05T10:15:20.910Z,4.40
2018-07-05T10:16:20.826Z,4.50
2018-07-05T10:17:20.823Z,5.20
2018-07-05T10:18:20.798Z,4.40
2018-07-05T10:19:20.803Z,5.80
2018-07-05T10:20:21.160Z,5.40
2018-07-05T10:21:20.763Z,7.00
2018-07-05T10:22:20.761Z,4.80
2018-07-05T10:23:20.745Z,4.60
2018-07-05T10:24:20.735Z,4.70
2018-07-05T10:25:20.791Z,4.20
2018-07-05T10:26:20.712Z,4.70
2018-07-05T10:27:20.787Z,5.20
2018-07-05T10:28:20.696Z,5.30
2018-07-05T10:29:20.687Z,4.90
2018-07-05T10:30:20.750Z,5.60
2018-07-05T10:31:20.687Z,4.30
2018-07-05T10:32:20.645Z,5.10
2018-07-05T10:33:20.635Z,5.80
2018-07-05T10:34:20.907Z,4.80
2018-07-05T10:35:20.695Z,4.00
2018-07-05T10:36:20.607Z,4.50
2018-07-05T10:37:20.605Z,5.50
2018-07-05T10:38:20.750Z,5.10
2018-07-05T10:39:20.570Z,4.80
2018-07-05T10:40:20.663Z,5.80
2018-07-05T10:41:20.547Z,5.20
2018-07-05T10:42:20.548Z,4.10
2018-07-05T10:43:20.536Z,5.90
2018-07-05T10:44:20.519Z,4.10
2018-07-05T10:45:20.585Z,6.10
2018-07-05T10:46:20.518Z,4.40
2018-07-05T10:47:20.538Z,4.50
2018-07-05T10:48:20.500Z,4.40
2018-07-05T10:49:20.474Z,6.20
2018-07-05T10:50:20.530Z,5.80
2018-07-05T10:51:20.503Z,4.90
2018-07-05T10:52:20.436Z,6.10
2018-07-05T10:53:20.415Z,4.50
2018-07-05T10:54:20.415Z,4.30
2018-07-05T10:55:20.549Z,5.30
2018-07-05T10:56:20.423Z,6.30
2018-07-05T10:57:20.382Z,6.30
2018-07-05T10:58:20.360Z,5.00
2018-07-05T10:59:20.774Z,5.50
2018-07-05T11:00:20.492Z,4.70
2018-07-05T11:01:20.316Z,4.70
2018-07-05T11:02:20.324Z,4.50
2018-07-05T11:03:20.307Z,5.40
2018-07-05T11:04:20.301Z,6.20
2018-07-05T11:05:20.365Z,4.80
2018-07-05T11:06:20.278Z,6.20
2018-07-05T11:07:20.271Z,6.00
2018-07-05T11:08:20.259Z,7.00
2018-07-05T11:09:20.262Z,6.30
2018-07-05T11:10:20.318Z,5.10
2018-07-05T11:11:20.228Z,5.50
2018-07-05T11:12:20.213Z,6.20
2018-07-05T11:13:20.200Z,5.80
2018-07-05T11:14:20.229Z,5.30
2018-07-05T11:15:20.332Z,9.50
2018-07-05T11:16:20.166Z,5.20
2018-07-05T11:17:20.154Z,5.10
2018-07-05T11:18:20.141Z,5.30
2018-07-05T11:19:20.135Z,5.10
2018-07-05T11:20:20.188Z,5.20
2018-07-05T11:21:20.662Z,6.00
2018-07-05T11:22:20.102Z,6.10
2018-07-05T11:23:20.790Z,6.20
2018-07-05T11:24:20.082Z,6.50
2018-07-05T11:25:20.137Z,5.80
2018-07-05T11:26:20.060Z,6.60
2018-07-05T11:27:20.033Z,6.20
2018-07-05T11:28:20.042Z,7.00
2018-07-05T11:29:20.023Z,5.60
2018-07-05T11:30:20.193Z,6.70
2018-07-05T11:31:20.039Z,5.30
2018-07-05T11:32:19.992Z,7.40
2018-07-05T11:33:19.975Z,6.00
2018-07-05T11:34:20.532Z,6.50
2018-07-05T11:35:20.036Z,5.00
2018-07-05T11:36:19.956Z,5.60
2018-07-05T11:37:19.931Z,6.20
2018-07-05T11:38:19.940Z,5.60
2018-07-05T11:39:19.917Z,6.20
2018-07-05T11:40:19.903Z,6.10
2018-07-05T11:41:19.969Z,9.40
2018-07-05T11:42:19.894Z,5.80
2018-07-05T11:43:19.878Z,7.80
2018-07-05T11:44:19.864Z,7.00
2018-07-05T11:45:19.849Z,6.70
2018-07-05T11:46:19.915Z,6.60
2018-07-05T11:47:19.838Z,5.60
2018-07-05T11:48:20.316Z,5.60
2018-07-05T11:49:20.530Z,5.90
2018-07-05T11:50:19.793Z,5.50
2018-07-05T11:51:19.864Z,6.80
2018-07-05T11:52:19.934Z,5.90
2018-07-05T11:53:19.756Z,5.70
2018-07-05T11:54:24.531Z,5.50
2018-07-05T11:55:19.736Z,5.80
2018-07-05T11:56:19.806Z,6.30
2018-07-05T11:57:19.720Z,5.70
2018-07-05T11:58:19.710Z,7.50
2018-07-05T11:59:19.705Z,6.40
2018-07-05T12:00:19.687Z,6.90
2018-07-05T12:01:19.763Z,7.20
2018-07-05T12:02:19.791Z,8.00
2018-07-05T12:03:19.661Z,7.10
2018-07-05T12:04:19.665Z,6.40
2018-07-05T12:05:19.638Z,6.10
2018-07-05T12:06:19.716Z,6.10
2018-07-05T12:07:19.617Z,4.50
2018-07-05T12:08:19.604Z,6.20
2018-07-05T12:09:19.589Z,5.50
2018-07-05T12:10:19.577Z,6.40
2018-07-05T12:11:19.630Z,7.00
2018-07-05T12:12:19.561Z,5.80
2018-07-05T12:13:19.543Z,5.40
2018-07-05T12:14:19.648Z,5.30
2018-07-05T12:15:19.542Z,5.80
2018-07-05T12:16:19.590Z,6.80
2018-07-05T12:17:19.508Z,6.80
2018-07-05T12:18:19.500Z,6.30
2018-07-05T12:19:19.618Z,14.60
2018-07-05T12:20:19.474Z,23.50
2018-07-05T12:21:19.554Z,7.10
2018-07-05T12:22:19.447Z,8.50
2018-07-05T12:23:19.447Z,7.70
2018-07-05T12:24:19.463Z,12.00
2018-07-05T12:25:19.433Z,10.70
2018-07-05T12:26:19.482Z,5.30
2018-07-05T12:27:19.390Z,5.90
2018-07-05T12:28:19.382Z,5.20
2018-07-05T12:29:19.458Z,5.50
2018-07-05T12:30:19.466Z,6.50
2018-07-05T12:31:19.432Z,6.90
2018-07-05T12:32:19.337Z,6.20
2018-07-05T12:33:19.338Z,5.60
2018-07-05T12:34:19.312Z,4.60
2018-07-05T12:35:19.296Z,5.60
2018-07-05T12:36:19.410Z,5.20
2018-07-05T12:37:19.284Z,5.50
2018-07-05T12:38:19.431Z,5.70
2018-07-05T12:39:19.276Z,6.40
2018-07-05T12:40:19.308Z,4.50
2018-07-05T12:41:19.288Z,6.50
2018-07-05T12:42:19.281Z,3.60
2018-07-05T12:43:19.210Z,6.20
2018-07-05T12:44:19.203Z,6.20
2018-07-05T12:45:19.197Z,4.90
2018-07-05T12:46:19.297Z,5.30
2018-07-05T12:47:19.168Z,6.30
2018-07-05T12:48:19.170Z,6.20
2018-07-05T12:49:19.145Z,4.30
2018-07-05T12:50:19.130Z,4.30
2018-07-05T12:51:19.177Z,5.40
2018-07-05T12:52:19.111Z,4.60
2018-07-05T12:53:19.100Z,3.70
2018-07-05T12:54:19.093Z,3.70
2018-07-05T12:55:19.075Z,4.60
2018-07-05T12:56:19.119Z,4.90
2018-07-05T12:57:19.062Z,3.60
2018-07-05T12:58:19.212Z,3.60
2018-07-05T12:59:19.037Z,4.20
2018-07-05T13:00:19.079Z,4.10
2018-07-05T13:01:19.069Z,4.10
2018-07-05T13:02:19.044Z,3.60
2018-07-05T13:03:19.116Z,4.50
2018-07-05T13:04:19.102Z,4.30
2018-07-05T13:05:18.968Z,5.00
2018-07-05T13:06:19.018Z,4.50
2018-07-05T13:07:18.957Z,4.60
2018-07-05T13:08:19.021Z,3.60
2018-07-05T13:09:19.108Z,3.80
2018-07-05T13:10:18.998Z,3.90
2018-07-05T13:11:19.338Z,4.10
2018-07-05T13:12:18.901Z,3.60
2018-07-05T13:13:19.137Z,4.10
2018-07-05T13:14:18.884Z,2.80
2018-07-05T13:15:18.867Z,4.50
2018-07-05T13:16:18.947Z,3.80
2018-07-05T13:17:18.854Z,3.60
2018-07-05T13:18:18.842Z,3.50
2018-07-05T13:19:18.816Z,2.50
2018-07-05T13:20:18.812Z,4.30
2018-07-05T13:21:18.994Z,6.00
2018-07-05T13:22:18.932Z,3.70
2018-07-05T13:23:18.803Z,3.60
2018-07-05T13:24:19.003Z,3.10
2018-07-05T13:25:18.750Z,4.70
2018-07-05T13:26:18.748Z,3.40
2018-07-05T13:27:18.806Z,3.50
2018-07-05T13:28:18.728Z,3.20
2018-07-05T13:29:18.712Z,3.40
2018-07-05T13:30:18.712Z,3.00
2018-07-05T13:31:18.690Z,3.50
2018-07-05T13:32:18.754Z,3.60
2018-07-05T13:33:18.667Z,4.40
2018-07-05T13:34:18.667Z,3.70
2018-07-05T13:35:18.642Z,3.70
2018-07-05T13:36:18.641Z,2.80
2018-07-05T13:37:18.703Z,3.20
2018-07-05T13:38:18.610Z,3.20
2018-07-05T13:39:18.606Z,4.00
2018-07-05T13:40:18.604Z,3.70
2018-07-05T13:41:18.582Z,3.40
2018-07-05T13:42:18.780Z,2.90
2018-07-05T13:43:18.568Z,4.20
2018-07-05T13:44:18.551Z,3.50
2018-07-05T13:45:18.580Z,3.00
2018-07-05T13:46:18.534Z,3.60
2018-07-05T13:47:18.595Z,3.50
2018-07-05T13:48:18.511Z,3.70
2018-07-05T13:49:18.496Z,3.60
2018-07-05T13:50:18.484Z,2.60
2018-07-05T13:51:18.479Z,2.70
2018-07-05T13:52:18.526Z,3.50
2018-07-05T13:53:18.449Z,3.70
2018-07-05T13:54:18.440Z,3.10
2018-07-05T13:55:18.425Z,3.00
2018-07-05T13:56:18.421Z,2.90
2018-07-05T13:57:18.517Z,3.40
2018-07-05T13:58:18.424Z,2.70
2018-07-05T13:59:18.386Z,2.40
2018-07-05T14:00:18.376Z,3.50
2018-07-05T14:01:18.398Z,3.70
2018-07-05T14:02:18.423Z,3.50
2018-07-05T14:03:18.349Z,3.30
2018-07-05T14:04:18.327Z,3.90
2018-07-05T14:05:18.326Z,2.90
2018-07-05T14:06:18.310Z,2.90
2018-07-05T14:07:18.380Z,3.20
2018-07-05T14:08:18.320Z,3.10
2018-07-05T14:09:18.346Z,2.80
2018-07-05T14:10:18.264Z,3.20
2018-07-05T14:11:18.244Z,3.50
2018-07-05T14:12:18.306Z,2.40
2018-07-05T14:13:18.231Z,2.50
2018-07-05T14:14:18.220Z,2.40
2018-07-05T14:15:18.215Z,3.70
2018-07-05T14:16:18.210Z,3.00
2018-07-05T14:17:18.374Z,2.90
2018-07-05T14:18:18.224Z,26.50
2018-07-05T14:19:18.175Z,41.00
2018-07-05T14:20:18.165Z,3.50
2018-07-05T14:21:18.151Z,3.80
2018-07-05T14:22:18.332Z,2.90
2018-07-05T14:23:19.442Z,3.40
2018-07-05T14:24:18.118Z,3.40
2018-07-05T14:25:18.231Z,4.20
2018-07-05T14:26:18.099Z,3.40
2018-07-05T14:27:18.157Z,2.80
2018-07-05T14:28:18.071Z,2.70
2018-07-05T14:29:18.086Z,2.80
2018-07-05T14:30:18.051Z,3.00
2018-07-05T14:31:18.043Z,2.70
2018-07-05T14:32:18.200Z,3.00
2018-07-05T14:33:18.122Z,2.90
2018-07-05T14:34:18.009Z,2.60
2018-07-05T14:35:18.171Z,3.30
2018-07-05T14:36:18.081Z,2.90
2018-07-05T14:37:18.532Z,3.70
2018-07-05T14:38:18.224Z,2.20
2018-07-05T14:39:17.981Z,3.00
2018-07-05T14:40:17.951Z,3.00
2018-07-05T14:41:17.938Z,2.30
2018-07-05T14:42:18.175Z,3.00
2018-07-05T14:43:18.218Z,3.00
2018-07-05T14:44:18.548Z,3.10
2018-07-05T14:45:18.164Z,3.20
2018-07-05T14:46:18.084Z,3.00
2018-07-05T14:47:18.064Z,3.40
2018-07-05T14:48:18.022Z,3.50
2018-07-05T14:49:17.838Z,2.80
2018-07-05T14:50:18.050Z,3.30
2018-07-05T14:51:17.994Z,3.70
2018-07-05T14:52:18.157Z,4.30
2018-07-05T14:53:18.044Z,2.80
2018-07-05T14:54:17.816Z,3.10
2018-07-05T14:55:17.794Z,3.60
2018-07-05T14:56:18.030Z,2.80
2018-07-05T14:57:17.914Z,4.50
2018-07-05T14:58:18.775Z,2.90
2018-07-05T14:59:18.666Z,3.40
2018-07-05T15:00:17.814Z,3.30
2018-07-05T15:01:17.795Z,2.80
2018-07-05T15:02:17.696Z,4.10
2018-07-05T15:03:18.383Z,3.20
2018-07-05T15:04:17.719Z,3.30
2018-07-05T15:05:18.277Z,3.60
2018-07-05T15:06:17.815Z,2.40
2018-07-05T15:07:18.100Z,2.90
2018-07-05T15:08:17.707Z,3.30
2018-07-05T15:09:17.804Z,2.90
2018-07-05T15:10:17.733Z,3.10
2018-07-05T15:13:17.476Z,2.10
2018-07-05T15:14:16.961Z,3.40
2018-07-05T15:15:17.110Z,4.50
2018-07-05T15:16:16.903Z,4.00
2018-07-05T15:17:16.838Z,3.50
2018-07-05T15:18:16.914Z,3.20
2018-07-05T15:19:16.829Z,3.90
2018-07-05T15:20:16.815Z,3.40
2018-07-05T15:21:16.779Z,3.10
2018-07-05T15:22:16.761Z,3.10
2018-07-05T15:23:17.037Z,3.40
2018-07-05T15:24:17.154Z,3.30
2018-07-05T15:25:16.967Z,3.00
2018-07-05T15:26:16.721Z,3.10
2018-07-05T15:27:17.135Z,2.60
2018-07-05T15:28:16.789Z,2.60
2018-07-05T15:29:19.919Z,2.40
2018-07-05T15:30:25.304Z,2.90
2018-07-05T15:31:16.765Z,2.30
2018-07-05T15:34:25.312Z,2.70
2018-07-05T15:35:23.561Z,2.60
2018-07-05T15:36:23.559Z,2.80
2018-07-05T15:37:23.594Z,3.30
2018-07-05T15:38:23.374Z,2.40
2018-07-05T15:39:23.425Z,3.60
2018-07-05T15:40:23.390Z,3.20
2018-07-05T15:41:25.137Z,3.00
2018-07-05T15:42:23.416Z,3.00
2018-07-05T15:43:23.499Z,3.90
2018-07-05T15:44:23.241Z,3.70
2018-07-05T15:45:23.235Z,3.80
2018-07-05T15:46:23.213Z,3.10
2018-07-05T15:47:23.418Z,4.40
2018-07-05T15:48:23.247Z,4.20
2018-07-05T15:49:23.186Z,3.50
2018-07-05T15:50:23.176Z,4.20
2018-07-05T15:51:23.187Z,4.20
2018-07-05T15:52:23.166Z,3.80
2018-07-05T15:53:23.240Z,3.40
2018-07-05T15:54:23.222Z,3.00
2018-07-05T15:55:23.124Z,3.40
2018-07-05T15:56:23.110Z,2.50
2018-07-05T15:57:23.100Z,3.90
2018-07-05T15:58:23.178Z,3.30
2018-07-05T15:59:23.254Z,4.50
2018-07-05T16:00:23.084Z,2.80
2018-07-05T16:01:23.070Z,3.20
2018-07-05T16:02:23.098Z,2.60
2018-07-05T16:03:23.122Z,2.80
2018-07-05T16:04:23.041Z,2.80
2018-07-05T16:05:23.036Z,2.30
2018-07-05T16:06:23.019Z,3.30
2018-07-05T16:07:22.993Z,2.70
2018-07-05T16:08:23.059Z,2.10
2018-07-05T16:09:23.415Z,2.70
2018-07-05T16:10:23.044Z,2.20
2018-07-05T16:11:22.964Z,2.80
2018-07-05T16:12:22.943Z,3.20
2018-07-05T16:13:22.929Z,2.40
2018-07-05T16:14:22.978Z,2.90
2018-07-05T16:15:22.922Z,2.60
2018-07-05T16:16:22.907Z,2.20
2018-07-05T16:17:22.899Z,2.20
2018-07-05T16:18:22.895Z,2.60
2018-07-05T16:19:23.028Z,2.20
2018-07-05T16:20:22.871Z,2.40
2018-07-05T16:21:22.860Z,2.50
2018-07-05T16:22:22.833Z,1.30
2018-07-05T16:23:22.823Z,2.10
2018-07-05T16:24:23.509Z,2.40
2018-07-05T16:25:22.839Z,2.40
2018-07-05T16:26:23.736Z,2.30
2018-07-05T16:27:23.122Z,2.60
2018-07-05T16:28:22.880Z,2.50
2018-07-05T16:29:22.840Z,2.00
2018-07-05T16:30:22.759Z,2.00
2018-07-05T16:31:22.751Z,3.00
2018-07-05T16:32:22.734Z,1.90
2018-07-05T16:33:22.965Z,3.10
2018-07-05T16:34:22.887Z,2.40
2018-07-05T16:35:22.886Z,3.20
2018-07-05T16:36:22.693Z,2.80
2018-07-05T16:37:22.687Z,2.50
2018-07-05T16:38:22.665Z,2.90
2018-07-05T16:39:22.722Z,2.40
2018-07-05T16:40:22.634Z,2.30
2018-07-05T16:41:22.651Z,2.40
2018-07-05T16:42:22.725Z,2.10
2018-07-05T16:43:22.653Z,3.10
2018-07-05T16:44:22.695Z,3.10
2018-07-05T16:45:22.594Z,2.50
2018-07-05T16:46:22.602Z,2.70
2018-07-05T16:47:22.587Z,2.10
2018-07-05T16:48:22.565Z,2.40
2018-07-05T16:49:22.669Z,2.60
2018-07-05T16:50:22.587Z,2.70
2018-07-05T16:51:23.800Z,2.50
2018-07-05T16:52:22.530Z,3.20
2018-07-05T16:53:22.634Z,2.60
2018-07-05T16:54:22.550Z,2.30
2018-07-05T16:55:22.481Z,3.20
2018-07-05T16:56:22.484Z,2.50
2018-07-05T16:57:22.480Z,2.20
2018-07-05T16:58:22.448Z,2.60
2018-07-05T16:59:22.519Z,3.10
2018-07-05T17:00:22.432Z,2.50
2018-07-05T17:01:22.422Z,2.20
2018-07-05T17:02:22.406Z,1.80
2018-07-05T17:03:22.400Z,2.10
2018-07-05T17:04:22.454Z,2.10
2018-07-05T17:05:22.488Z,3.30
2018-07-05T17:06:22.366Z,2.10
2018-07-05T17:07:22.338Z,1.90
2018-07-05T17:08:22.335Z,2.60
2018-07-05T17:09:22.381Z,2.60
2018-07-05T17:10:22.307Z,2.50
2018-07-05T17:11:22.297Z,2.50
2018-07-05T17:12:22.283Z,2.00
2018-07-05T17:13:22.288Z,2.10
2018-07-05T17:14:22.358Z,2.10
2018-07-05T17:15:22.279Z,3.00
2018-07-05T17:16:22.252Z,2.50
2018-07-05T17:17:22.236Z,2.40
2018-07-05T17:18:22.220Z,2.00
2018-07-05T17:19:22.275Z,2.70
2018-07-05T17:20:22.200Z,2.30
2018-07-05T17:21:22.187Z,3.10
2018-07-05T17:22:22.179Z,1.80
2018-07-05T17:23:22.167Z,2.10
2018-07-05T17:24:22.152Z,2.20
2018-07-05T17:25:22.233Z,2.10
2018-07-05T17:26:22.146Z,2.00
2018-07-05T17:27:22.181Z,2.10
2018-07-05T17:28:22.136Z,2.60
2018-07-05T17:29:22.134Z,1.90
2018-07-05T17:30:22.151Z,3.10
2018-07-05T17:31:22.075Z,2.20
2018-07-05T17:32:22.122Z,2.60
2018-07-05T17:33:22.061Z,2.20
2018-07-05T17:34:22.044Z,2.80
2018-07-05T17:35:22.109Z,2.20
2018-07-05T17:36:22.029Z,1.90
2018-07-05T17:37:22.020Z,2.10
2018-07-05T17:38:22.007Z,3.00
2018-07-05T17:39:22.013Z,2.50
2018-07-05T17:40:22.057Z,2.20
2018-07-05T17:41:21.974Z,2.70
2018-07-05T17:42:21.968Z,2.20
2018-07-05T17:43:21.965Z,2.00
2018-07-05T17:44:21.946Z,2.40
2018-07-05T17:45:22.007Z,2.20
2018-07-05T17:46:21.933Z,2.40
2018-07-05T17:47:21.908Z,2.30
2018-07-05T17:48:21.899Z,2.70
2018-07-05T17:49:21.888Z,2.90
2018-07-05T17:50:21.957Z,2.90
2018-07-05T17:51:21.870Z,3.20
2018-07-05T17:52:21.865Z,2.70
2018-07-05T17:53:21.843Z,2.30
2018-07-05T17:54:21.836Z,2.50
2018-07-05T17:55:22.640Z,2.40
2018-07-05T17:56:21.811Z,2.70
2018-07-05T17:57:21.979Z,2.30
2018-07-05T17:58:21.801Z,2.50
2018-07-05T17:59:21.957Z,2.20
2018-07-05T18:00:21.856Z,2.20
2018-07-05T18:01:21.775Z,2.10
2018-07-05T18:02:21.746Z,2.90
2018-07-05T18:03:21.739Z,2.90
2018-07-05T18:04:21.721Z,2.70
2018-07-05T18:05:21.818Z,2.60
2018-07-05T18:06:21.705Z,2.90
2018-07-05T18:07:21.698Z,2.80
2018-07-05T18:08:21.683Z,2.80
2018-07-05T18:09:21.678Z,3.40
2018-07-05T18:10:21.724Z,2.90
2018-07-05T18:11:21.649Z,2.90
2018-07-05T18:12:21.636Z,3.30
2018-07-05T18:13:21.626Z,3.30
2018-07-05T18:14:21.616Z,2.70
2018-07-05T18:15:21.677Z,2.60
2018-07-05T18:16:21.589Z,2.30
2018-07-05T18:17:21.569Z,2.70
2018-07-05T18:18:21.575Z,3.20
2018-07-05T18:19:21.560Z,3.30
2018-07-05T18:20:21.627Z,2.50
2018-07-05T18:21:21.539Z,2.70
2018-07-05T18:22:21.526Z,3.00
2018-07-05T18:23:21.515Z,2.30
2018-07-05T18:24:21.501Z,3.00
2018-07-05T18:25:21.570Z,2.60
2018-07-05T18:26:21.481Z,2.70
2018-07-05T18:27:21.562Z,3.00
2018-07-05T18:28:21.459Z,3.00
2018-07-05T18:29:21.438Z,2.70
2018-07-05T18:30:21.714Z,2.70
2018-07-05T18:31:21.432Z,3.50
2018-07-05T18:32:21.420Z,2.20
2018-07-05T18:33:21.406Z,2.60
2018-07-05T18:34:21.411Z,2.30
2018-07-05T18:35:21.457Z,3.10
2018-07-05T18:36:21.371Z,2.70
2018-07-05T18:37:21.362Z,3.00
2018-07-05T18:38:21.345Z,2.80
2018-07-05T18:39:21.339Z,2.60
2018-07-05T18:40:21.409Z,3.70
2018-07-05T18:41:21.361Z,3.00
2018-07-05T18:42:21.304Z,2.40
2018-07-05T18:43:21.296Z,2.50
2018-07-05T18:44:23.103Z,2.80
2018-07-05T18:45:21.342Z,2.30
2018-07-05T18:46:21.265Z,2.00
2018-07-05T18:47:21.259Z,2.80
2018-07-05T18:48:21.247Z,2.50
2018-07-05T18:49:21.226Z,2.80
2018-07-05T18:50:21.290Z,3.00
2018-07-05T18:51:21.217Z,2.40
2018-07-05T18:52:21.192Z,3.20
2018-07-05T18:53:21.184Z,2.10
2018-07-05T18:54:21.182Z,2.40
2018-07-05T18:55:21.230Z,2.70
2018-07-05T18:56:21.158Z,2.70
2018-07-05T18:57:21.142Z,3.00
2018-07-05T18:58:21.177Z,2.50
2018-07-05T18:59:21.137Z,3.00
2018-07-05T19:00:21.199Z,2.00
2018-07-05T19:01:21.092Z,2.90
2018-07-05T19:02:21.088Z,2.00
2018-07-05T19:03:21.074Z,2.70
2018-07-05T19:04:21.062Z,2.80
2018-07-05T19:05:21.054Z,2.80
2018-07-05T19:06:21.112Z,2.50
2018-07-05T19:07:21.034Z,2.60
2018-07-05T19:08:21.020Z,2.20
2018-07-05T19:09:21.013Z,2.40
2018-07-05T19:10:20.995Z,2.50
2018-07-05T19:11:21.065Z,2.00
2018-07-05T19:12:20.976Z,2.60
2018-07-05T19:13:20.962Z,2.20
2018-07-05T19:14:20.950Z,2.50
2018-07-05T19:15:20.944Z,2.10
2018-07-05T19:16:21.134Z,2.00
2018-07-05T19:17:20.926Z,2.70
2018-07-05T19:18:20.909Z,2.00
2018-07-05T19:19:20.900Z,2.30
2018-07-05T19:20:20.890Z,2.60
2018-07-05T19:21:20.997Z,2.20
2018-07-05T19:22:20.866Z,2.70
2018-07-05T19:23:20.851Z,2.10
2018-07-05T19:24:20.842Z,2.80
2018-07-05T19:25:20.835Z,3.10
2018-07-05T19:26:20.895Z,2.40
2018-07-05T19:27:20.810Z,1.90
2018-07-05T19:28:20.807Z,1.80
2018-07-05T19:29:20.793Z,2.40
2018-07-05T19:30:20.800Z,2.10
2018-07-05T19:31:20.840Z,2.40
2018-07-05T19:32:20.757Z,2.10
2018-07-05T19:33:20.793Z,2.80
2018-07-05T19:34:20.790Z,2.80
2018-07-05T19:35:20.721Z,3.10
2018-07-05T19:36:20.781Z,3.10
2018-07-05T19:37:20.702Z,3.40
2018-07-05T19:38:20.692Z,3.00
2018-07-05T19:39:20.677Z,3.00
2018-07-05T19:40:20.670Z,3.20
2018-07-05T19:41:20.732Z,2.30
2018-07-05T19:42:20.647Z,3.30
2018-07-05T19:43:20.636Z,2.60
2018-07-05T19:44:20.625Z,2.50
2018-07-05T19:45:20.623Z,2.70
2018-07-05T19:46:20.663Z,2.90
2018-07-05T19:47:20.593Z,3.10
2018-07-05T19:48:20.579Z,2.60
2018-07-05T19:49:20.570Z,2.90
2018-07-05T19:50:20.561Z,2.40
2018-07-05T19:51:20.643Z,2.80
2018-07-05T19:52:20.532Z,3.00
2018-07-05T19:53:20.528Z,2.60
2018-07-05T19:54:20.512Z,2.20
2018-07-05T19:55:20.501Z,2.30
2018-07-05T19:56:20.569Z,2.50
2018-07-05T19:57:20.487Z,2.50
2018-07-05T19:58:20.476Z,1.50
2018-07-05T19:59:20.459Z,3.00
2018-07-05T20:00:20.474Z,3.70
2018-07-05T20:01:20.512Z,2.90
2018-07-05T20:02:20.426Z,1.80
2018-07-05T20:03:20.410Z,2.50
2018-07-05T20:04:20.404Z,2.80
2018-07-05T20:05:20.393Z,3.30
2018-07-05T20:06:20.457Z,2.50
2018-07-05T20:07:20.443Z,1.70
2018-07-05T20:08:20.376Z,2.80
2018-07-05T20:09:20.372Z,2.20
2018-07-05T20:10:20.339Z,2.40
2018-07-05T20:11:20.401Z,1.90
2018-07-05T20:12:20.320Z,2.40
2018-07-05T20:13:20.340Z,2.40
2018-07-05T20:14:20.300Z,2.20
2018-07-05T20:15:20.280Z,2.40
2018-07-05T20:16:20.333Z,1.90
2018-07-05T20:17:20.261Z,2.30
2018-07-05T20:18:20.245Z,2.30
2018-07-05T20:19:20.237Z,2.30
2018-07-05T20:20:20.225Z,1.90
2018-07-05T20:21:20.286Z,3.80
2018-07-05T20:22:20.209Z,1.60
2018-07-05T20:23:20.192Z,2.10
2018-07-05T20:24:20.190Z,2.30
2018-07-05T20:25:20.178Z,2.10
2018-07-05T20:26:20.232Z,2.30
2018-07-05T20:27:20.152Z,2.10
2018-07-05T20:28:20.141Z,2.60
2018-07-05T20:29:20.125Z,1.90
2018-07-05T20:30:20.353Z,3.30
2018-07-05T20:31:20.169Z,2.80
2018-07-05T20:32:20.092Z,2.50
2018-07-05T20:33:20.080Z,1.90
2018-07-05T20:34:20.071Z,2.40
2018-07-05T20:35:20.071Z,3.50
2018-07-05T20:36:20.127Z,3.10
2018-07-05T20:37:20.044Z,3.00
2018-07-05T20:38:20.021Z,1.90
2018-07-05T20:39:20.017Z,2.20
2018-07-05T20:40:20.005Z,2.30
2018-07-05T20:41:20.079Z,2.30
2018-07-05T20:42:19.986Z,2.40
2018-07-05T20:43:19.969Z,2.20
2018-07-05T20:44:19.955Z,3.00
2018-07-05T20:45:19.946Z,2.40
2018-07-05T20:46:19.940Z,2.30
2018-07-05T20:47:20.026Z,2.50
2018-07-05T20:48:19.915Z,2.50
2018-07-05T20:49:19.901Z,2.70
2018-07-05T20:50:19.889Z,2.80
2018-07-05T20:51:19.883Z,2.40
2018-07-05T20:52:19.949Z,2.90
2018-07-05T20:53:19.862Z,2.00
2018-07-05T20:54:19.849Z,2.50
2018-07-05T20:55:19.832Z,2.30
2018-07-05T20:56:19.824Z,2.30
2018-07-05T20:57:19.883Z,2.40
2018-07-05T20:58:19.803Z,2.20
2018-07-05T20:59:19.791Z,2.00
2018-07-05T21:00:19.774Z,1.90
2018-07-05T21:01:19.764Z,2.00
2018-07-05T21:02:19.828Z,2.50
2018-07-05T21:03:19.746Z,2.40
2018-07-05T21:04:19.730Z,2.00
2018-07-05T21:05:19.726Z,2.10
2018-07-05T21:06:19.710Z,1.90
2018-07-05T21:07:19.770Z,2.40
2018-07-05T21:08:19.687Z,1.80